PWSweather.com
Personal Weather Stations
Station Observations
SPARKSRC
St. Petersburg, FL 33716

St. Petersburg, FL 33716

Lat: 27.876101, Lon: -82.657194

Elevation: 13

Station Type: Zephyr PWS-1000TD

High Low Average
Temperature 111.4°F44.1°C 75.6°F24.2°C 91.8°F33.2°C
Dew Point 84.6°F29.2°C 64.9°F18.3°C 75.0°F23.9°C
Winds 10.7 mph 17.2 kmh Calm Calm 4.0 mph WNW6.4 kmh WNW
Wind Gusts 15.9 mph25.6 kmh 1.6 mph2.6 kmh 8.0 mph12.9 kmh
Humidity 77% 39% 60%
Pressure 30.15 in1021.0 mb 30.05 in1017.6 mb -
Precipitation 0.00 in0.0 mm - -
Hour Temp Dew Point Humidity Winds Wind Gusts Pressure Precip Precip Rate Daily Precip Total
12:00 AM 79.0°F26.1°C 67.1°F19.5°C 67% 1.6 mph WNW2.6 kmh WNW 3.8 mph6.1 kmh 30.12 in1020.0 mb 0.00 in0.0 mm 0.00 in0.0 mm 0.00 in0.0 mm
12:05 AM 79.0°F26.1°C 67.1°F19.5°C 67% 2.2 mph WNW3.5 kmh WNW 3.8 mph6.1 kmh 30.12 in1020.0 mb 0.00 in0.0 mm 0.00 in0.0 mm 0.00 in0.0 mm
12:10 AM 79.0°F26.1°C 67.1°F19.5°C 67% 1.6 mph WNW2.6 kmh WNW 3.8 mph6.1 kmh 30.12 in1020.0 mb 0.00 in0.0 mm 0.00 in0.0 mm 0.00 in0.0 mm
12:15 AM 79.0°F26.1°C 67.1°F19.5°C 67% 2.2 mph WNW3.5 kmh WNW 3.8 mph6.1 kmh 30.11 in1019.6 mb 0.00 in0.0 mm 0.00 in0.0 mm 0.00 in0.0 mm
12:20 AM 78.8°F26.0°C 67.0°F19.4°C 67% 1.6 mph WNW2.6 kmh WNW 3.1 mph5.0 kmh 30.11 in1019.6 mb 0.00 in0.0 mm 0.00 in0.0 mm 0.00 in0.0 mm
12:25 AM 78.6°F25.9°C 66.8°F19.3°C 67% 3.1 mph WNW5.0 kmh WNW 3.8 mph6.1 kmh 30.11 in1019.6 mb 0.00 in0.0 mm 0.00 in0.0 mm 0.00 in0.0 mm
12:30 AM 78.4°F25.8°C 66.6°F19.2°C 67% 2.2 mph WNW3.5 kmh WNW 3.8 mph6.1 kmh 30.11 in1019.6 mb 0.00 in0.0 mm 0.00 in0.0 mm 0.00 in0.0 mm
12:35 AM 78.3°F25.7°C 66.9°F19.4°C 68% 0.7 mph WNW1.1 kmh WNW 3.8 mph6.1 kmh 30.11 in1019.6 mb 0.00 in0.0 mm 0.00 in0.0 mm 0.00 in0.0 mm
12:40 AM 78.3°F25.7°C 66.9°F19.4°C 68% 2.2 mph WNW3.5 kmh WNW 3.1 mph5.0 kmh 30.11 in1019.6 mb 0.00 in0.0 mm 0.00 in0.0 mm 0.00 in0.0 mm
12:45 AM 78.3°F25.7°C 66.9°F19.4°C 68% 1.6 mph WNW2.6 kmh WNW 3.1 mph5.0 kmh 30.11 in1019.6 mb 0.00 in0.0 mm 0.00 in0.0 mm 0.00 in0.0 mm
12:50 AM 78.3°F25.7°C 66.9°F19.4°C 68% 2.2 mph WNW3.5 kmh WNW 3.1 mph5.0 kmh 30.11 in1019.6 mb 0.00 in0.0 mm 0.00 in0.0 mm 0.00 in0.0 mm
12:55 AM 78.1°F25.6°C 66.7°F19.3°C 68% 2.2 mph WNW3.5 kmh WNW 3.8 mph6.1 kmh 30.11 in1019.6 mb 0.00 in0.0 mm 0.00 in0.0 mm 0.00 in0.0 mm
01:00 AM 78.1°F25.6°C 66.7°F19.3°C 68% 3.1 mph WNW5.0 kmh WNW 3.8 mph6.1 kmh 30.11 in1019.6 mb 0.00 in0.0 mm 0.00 in0.0 mm 0.00 in0.0 mm
01:05 AM 78.1°F25.6°C 66.7°F19.3°C 68% 2.2 mph WNW3.5 kmh WNW 3.8 mph6.1 kmh 30.10 in1019.3 mb 0.00 in0.0 mm 0.00 in0.0 mm 0.00 in0.0 mm
01:10 AM 77.9°F25.5°C 66.5°F19.2°C 68% 1.6 mph WNW2.6 kmh WNW 3.8 mph6.1 kmh 30.11 in1019.6 mb 0.00 in0.0 mm 0.00 in0.0 mm 0.00 in0.0 mm
01:15 AM 77.9°F25.5°C 66.5°F19.2°C 68% 2.2 mph WNW3.5 kmh WNW 3.8 mph6.1 kmh 30.11 in1019.6 mb 0.00 in0.0 mm 0.00 in0.0 mm 0.00 in0.0 mm
01:20 AM 77.7°F25.4°C 66.4°F19.1°C 68% 2.2 mph WNW3.5 kmh WNW 3.8 mph6.1 kmh 30.10 in1019.3 mb 0.00 in0.0 mm 0.00 in0.0 mm 0.00 in0.0 mm
01:25 AM 77.7°F25.4°C 66.4°F19.1°C 68% 0.7 mph WNW1.1 kmh WNW 3.1 mph5.0 kmh 30.09 in1019.0 mb 0.00 in0.0 mm 0.00 in0.0 mm 0.00 in0.0 mm
01:30 AM 77.7°F25.4°C 66.4°F19.1°C 68% 0.7 mph WNW1.1 kmh WNW 3.1 mph5.0 kmh 30.10 in1019.3 mb 0.00 in0.0 mm 0.00 in0.0 mm 0.00 in0.0 mm
01:35 AM 77.5°F25.3°C 66.2°F19.0°C 68% Calm Calm 2.2 mph3.5 kmh 30.10 in1019.3 mb 0.00 in0.0 mm 0.00 in0.0 mm 0.00 in0.0 mm
01:40 AM 77.5°F25.3°C 66.2°F19.0°C 68% 0.7 mph NW1.1 kmh NW 2.2 mph3.5 kmh 30.09 in1019.0 mb 0.00 in0.0 mm 0.00 in0.0 mm 0.00 in0.0 mm
01:45 AM 77.5°F25.3°C 66.2°F19.0°C 68% 0.7 mph NW1.1 kmh NW 2.2 mph3.5 kmh 30.09 in1019.0 mb 0.00 in0.0 mm 0.00 in0.0 mm 0.00 in0.0 mm
01:50 AM 77.4°F25.2°C 66.0°F18.9°C 68% 1.6 mph NW2.6 kmh NW 2.2 mph3.5 kmh 30.09 in1019.0 mb 0.00 in0.0 mm 0.00 in0.0 mm 0.00 in0.0 mm
01:55 AM 77.4°F25.2°C 66.4°F19.1°C 69% 0.7 mph NW1.1 kmh NW 2.2 mph3.5 kmh 30.09 in1019.0 mb 0.00 in0.0 mm 0.00 in0.0 mm 0.00 in0.0 mm
02:00 AM 77.4°F25.2°C 66.4°F19.1°C 69% Calm Calm 2.2 mph3.5 kmh 30.09 in1019.0 mb 0.00 in0.0 mm 0.00 in0.0 mm 0.00 in0.0 mm
02:05 AM 77.2°F25.1°C 66.3°F19.1°C 69% Calm Calm 1.6 mph2.6 kmh 30.09 in1019.0 mb 0.00 in0.0 mm 0.00 in0.0 mm 0.00 in0.0 mm
02:10 AM 77.2°F25.1°C 66.3°F19.1°C 69% 0.7 mph NW1.1 kmh NW 2.2 mph3.5 kmh 30.09 in1019.0 mb 0.00 in0.0 mm 0.00 in0.0 mm 0.00 in0.0 mm
02:15 AM 77.2°F25.1°C 66.3°F19.1°C 69% 0.7 mph NW1.1 kmh NW 2.2 mph3.5 kmh 30.08 in1018.6 mb 0.00 in0.0 mm 0.00 in0.0 mm 0.00 in0.0 mm
02:20 AM 77.0°F25.0°C 66.1°F18.9°C 69% 0.7 mph NW1.1 kmh NW 2.2 mph3.5 kmh 30.08 in1018.6 mb 0.00 in0.0 mm 0.00 in0.0 mm 0.00 in0.0 mm
02:25 AM 77.0°F25.0°C 66.1°F18.9°C 69% 2.2 mph NW3.5 kmh NW 3.1 mph5.0 kmh 30.08 in1018.6 mb 0.00 in0.0 mm 0.00 in0.0 mm 0.00 in0.0 mm
02:30 AM 77.0°F25.0°C 66.1°F18.9°C 69% 1.6 mph NW2.6 kmh NW 3.8 mph6.1 kmh 30.08 in1018.6 mb 0.00 in0.0 mm 0.00 in0.0 mm 0.00 in0.0 mm
02:35 AM 77.2°F25.1°C 66.3°F19.1°C 69% 1.6 mph NW2.6 kmh NW 3.8 mph6.1 kmh 30.08 in1018.6 mb 0.00 in0.0 mm 0.00 in0.0 mm 0.00 in0.0 mm
02:40 AM 77.0°F25.0°C 66.1°F18.9°C 69% 2.2 mph NW3.5 kmh NW 3.1 mph5.0 kmh 30.08 in1018.6 mb 0.00 in0.0 mm 0.00 in0.0 mm 0.00 in0.0 mm
02:45 AM 77.0°F25.0°C 66.1°F18.9°C 69% 1.6 mph NW2.6 kmh NW 3.1 mph5.0 kmh 30.07 in1018.3 mb 0.00 in0.0 mm 0.00 in0.0 mm 0.00 in0.0 mm
02:50 AM 76.8°F24.9°C 65.9°F18.8°C 69% 1.6 mph NW2.6 kmh NW 3.1 mph5.0 kmh 30.07 in1018.3 mb 0.00 in0.0 mm 0.00 in0.0 mm 0.00 in0.0 mm
02:55 AM 76.8°F24.9°C 65.9°F18.8°C 69% 1.6 mph NW2.6 kmh NW 3.1 mph5.0 kmh 30.07 in1018.3 mb 0.00 in0.0 mm 0.00 in0.0 mm 0.00 in0.0 mm
03:00 AM 76.6°F24.8°C 65.7°F18.7°C 69% Calm Calm 2.2 mph3.5 kmh 30.07 in1018.3 mb 0.00 in0.0 mm 0.00 in0.0 mm 0.00 in0.0 mm
03:05 AM 76.6°F24.8°C 65.7°F18.7°C 69% Calm Calm 2.2 mph3.5 kmh 30.07 in1018.3 mb 0.00 in0.0 mm 0.00 in0.0 mm 0.00 in0.0 mm
03:10 AM 76.5°F24.7°C 65.6°F18.7°C 69% 0.7 mph NW1.1 kmh NW 1.6 mph2.6 kmh 30.07 in1018.3 mb 0.00 in0.0 mm 0.00 in0.0 mm 0.00 in0.0 mm
03:15 AM 76.5°F24.7°C 65.6°F18.7°C 69% 0.7 mph NW1.1 kmh NW 2.2 mph3.5 kmh 30.07 in1018.3 mb 0.00 in0.0 mm 0.00 in0.0 mm 0.00 in0.0 mm
03:20 AM 76.5°F24.7°C 65.6°F18.7°C 69% 0.7 mph NW1.1 kmh NW 2.2 mph3.5 kmh 30.07 in1018.3 mb 0.00 in0.0 mm 0.00 in0.0 mm 0.00 in0.0 mm
03:25 AM 76.3°F24.6°C 65.4°F18.6°C 69% 2.2 mph NW3.5 kmh NW 3.1 mph5.0 kmh 30.06 in1017.9 mb 0.00 in0.0 mm 0.00 in0.0 mm 0.00 in0.0 mm
03:30 AM 76.3°F24.6°C 65.4°F18.6°C 69% 1.6 mph NW2.6 kmh NW 3.1 mph5.0 kmh 30.07 in1018.3 mb 0.00 in0.0 mm 0.00 in0.0 mm 0.00 in0.0 mm
03:35 AM 76.1°F24.5°C 65.2°F18.4°C 69% 0.7 mph NW1.1 kmh NW 3.1 mph5.0 kmh 30.06 in1017.9 mb 0.00 in0.0 mm 0.00 in0.0 mm 0.00 in0.0 mm
03:40 AM 76.1°F24.5°C 65.2°F18.4°C 69% Calm Calm 2.2 mph3.5 kmh 30.07 in1018.3 mb 0.00 in0.0 mm 0.00 in0.0 mm 0.00 in0.0 mm
03:45 AM 76.1°F24.5°C 65.2°F18.4°C 69% 2.2 mph NW3.5 kmh NW 3.1 mph5.0 kmh 30.07 in1018.3 mb 0.00 in0.0 mm 0.00 in0.0 mm 0.00 in0.0 mm
03:50 AM 76.1°F24.5°C 65.2°F18.4°C 69% 2.2 mph NW3.5 kmh NW 3.1 mph5.0 kmh 30.08 in1018.6 mb 0.00 in0.0 mm 0.00 in0.0 mm 0.00 in0.0 mm
03:55 AM 75.9°F24.4°C 65.1°F18.4°C 69% 2.2 mph NW3.5 kmh NW 3.8 mph6.1 kmh 30.07 in1018.3 mb 0.00 in0.0 mm 0.00 in0.0 mm 0.00 in0.0 mm
04:00 AM 76.3°F24.6°C 65.4°F18.6°C 69% 1.6 mph NW2.6 kmh NW 3.8 mph6.1 kmh 30.06 in1017.9 mb 0.00 in0.0 mm 0.00 in0.0 mm 0.00 in0.0 mm
04:05 AM 76.1°F24.5°C 65.2°F18.4°C 69% 2.2 mph NW3.5 kmh NW 3.1 mph5.0 kmh 30.07 in1018.3 mb 0.00 in0.0 mm 0.00 in0.0 mm 0.00 in0.0 mm
04:10 AM 76.1°F24.5°C 65.2°F18.4°C 69% 2.2 mph NW3.5 kmh NW 3.1 mph5.0 kmh 30.07 in1018.3 mb 0.00 in0.0 mm 0.00 in0.0 mm 0.00 in0.0 mm
04:15 AM 75.9°F24.4°C 65.1°F18.4°C 69% 0.7 mph NW1.1 kmh NW 3.1 mph5.0 kmh 30.07 in1018.3 mb 0.00 in0.0 mm 0.00 in0.0 mm 0.00 in0.0 mm
04:20 AM 75.7°F24.3°C 64.9°F18.3°C 69% 2.2 mph NW3.5 kmh NW 3.1 mph5.0 kmh 30.07 in1018.3 mb 0.00 in0.0 mm 0.00 in0.0 mm 0.00 in0.0 mm
04:25 AM 75.9°F24.4°C 65.1°F18.4°C 69% 1.6 mph NW2.6 kmh NW 3.1 mph5.0 kmh 30.07 in1018.3 mb 0.00 in0.0 mm 0.00 in0.0 mm 0.00 in0.0 mm
04:30 AM 76.1°F24.5°C 65.2°F18.4°C 69% 0.7 mph NW1.1 kmh NW 3.1 mph5.0 kmh 30.07 in1018.3 mb 0.00 in0.0 mm 0.00 in0.0 mm 0.00 in0.0 mm
04:35 AM 75.9°F24.4°C 65.1°F18.4°C 69% 1.6 mph NW2.6 kmh NW 2.2 mph3.5 kmh 30.07 in1018.3 mb 0.00 in0.0 mm 0.00 in0.0 mm 0.00 in0.0 mm
04:40 AM 75.9°F24.4°C 65.1°F18.4°C 69% 0.7 mph NW1.1 kmh NW 2.2 mph3.5 kmh 30.07 in1018.3 mb 0.00 in0.0 mm 0.00 in0.0 mm 0.00 in0.0 mm
04:45 AM 75.9°F24.4°C 65.1°F18.4°C 69% 0.7 mph NW1.1 kmh NW 2.2 mph3.5 kmh 30.07 in1018.3 mb 0.00 in0.0 mm 0.00 in0.0 mm 0.00 in0.0 mm
04:50 AM 75.7°F24.3°C 64.9°F18.3°C 69% Calm Calm 2.2 mph3.5 kmh 30.07 in1018.3 mb 0.00 in0.0 mm 0.00 in0.0 mm 0.00 in0.0 mm
04:55 AM 75.7°F24.3°C 65.3°F18.5°C 70% 1.6 mph NW2.6 kmh NW 2.2 mph3.5 kmh 30.08 in1018.6 mb 0.00 in0.0 mm 0.00 in0.0 mm 0.00 in0.0 mm
05:00 AM 75.7°F24.3°C 65.3°F18.5°C 70% 1.6 mph NW2.6 kmh NW 3.1 mph5.0 kmh 30.08 in1018.6 mb 0.00 in0.0 mm 0.00 in0.0 mm 0.00 in0.0 mm
05:05 AM 75.7°F24.3°C 65.3°F18.5°C 70% 0.7 mph NW1.1 kmh NW 3.1 mph5.0 kmh 30.08 in1018.6 mb 0.00 in0.0 mm 0.00 in0.0 mm 0.00 in0.0 mm
05:10 AM 75.7°F24.3°C 65.3°F18.5°C 70% 0.7 mph NW1.1 kmh NW 2.2 mph3.5 kmh 30.09 in1019.0 mb 0.00 in0.0 mm 0.00 in0.0 mm 0.00 in0.0 mm
05:15 AM 75.7°F24.3°C 65.3°F18.5°C 70% 1.6 mph NW2.6 kmh NW 2.2 mph3.5 kmh 30.08 in1018.6 mb 0.00 in0.0 mm 0.00 in0.0 mm 0.00 in0.0 mm
05:20 AM 75.9°F24.4°C 65.5°F18.6°C 70% Calm Calm 2.2 mph3.5 kmh 30.08 in1018.6 mb 0.00 in0.0 mm 0.00 in0.0 mm 0.00 in0.0 mm
05:25 AM 75.7°F24.3°C 65.3°F18.5°C 70% Calm Calm 2.2 mph3.5 kmh 30.08 in1018.6 mb 0.00 in0.0 mm 0.00 in0.0 mm 0.00 in0.0 mm
05:30 AM 75.7°F24.3°C 65.3°F18.5°C 70% 0.7 mph NW1.1 kmh NW 1.6 mph2.6 kmh 30.09 in1019.0 mb 0.00 in0.0 mm 0.00 in0.0 mm 0.00 in0.0 mm
05:35 AM 75.6°F24.2°C 65.5°F18.6°C 71% 1.6 mph NW2.6 kmh NW 2.2 mph3.5 kmh 30.09 in1019.0 mb 0.00 in0.0 mm 0.00 in0.0 mm 0.00 in0.0 mm
05:40 AM 75.7°F24.3°C 65.7°F18.7°C 71% 1.6 mph NW2.6 kmh NW 3.1 mph5.0 kmh 30.09 in1019.0 mb 0.00 in0.0 mm 0.00 in0.0 mm 0.00 in0.0 mm
05:45 AM 75.6°F24.2°C 65.5°F18.6°C 71% 0.7 mph NW1.1 kmh NW 3.1 mph5.0 kmh 30.10 in1019.3 mb 0.00 in0.0 mm 0.00 in0.0 mm 0.00 in0.0 mm
05:50 AM 75.7°F24.3°C 65.7°F18.7°C 71% 1.6 mph NW2.6 kmh NW 3.1 mph5.0 kmh 30.10 in1019.3 mb 0.00 in0.0 mm 0.00 in0.0 mm 0.00 in0.0 mm
05:55 AM 75.7°F24.3°C 65.7°F18.7°C 71% 1.6 mph NW2.6 kmh NW 3.8 mph6.1 kmh 30.09 in1019.0 mb 0.00 in0.0 mm 0.00 in0.0 mm 0.00 in0.0 mm
06:00 AM 75.7°F24.3°C 65.7°F18.7°C 71% 1.6 mph NW2.6 kmh NW 3.8 mph6.1 kmh 30.10 in1019.3 mb 0.00 in0.0 mm 0.00 in0.0 mm 0.00 in0.0 mm
06:05 AM 75.7°F24.3°C 65.7°F18.7°C 71% 0.7 mph NW1.1 kmh NW 3.1 mph5.0 kmh 30.10 in1019.3 mb 0.00 in0.0 mm 0.00 in0.0 mm 0.00 in0.0 mm
06:10 AM 75.9°F24.4°C 65.9°F18.8°C 71% 1.6 mph NW2.6 kmh NW 3.1 mph5.0 kmh 30.10 in1019.3 mb 0.00 in0.0 mm 0.00 in0.0 mm 0.00 in0.0 mm
06:15 AM 75.9°F24.4°C 65.9°F18.8°C 71% 2.2 mph NW3.5 kmh NW 3.8 mph6.1 kmh 30.10 in1019.3 mb 0.00 in0.0 mm 0.00 in0.0 mm 0.00 in0.0 mm
06:20 AM 75.9°F24.4°C 65.9°F18.8°C 71% 1.6 mph NW2.6 kmh NW 3.8 mph6.1 kmh 30.10 in1019.3 mb 0.00 in0.0 mm 0.00 in0.0 mm 0.00 in0.0 mm
06:25 AM 75.9°F24.4°C 66.3°F19.1°C 72% 1.6 mph NW2.6 kmh NW 3.8 mph6.1 kmh 30.10 in1019.3 mb 0.00 in0.0 mm 0.00 in0.0 mm 0.00 in0.0 mm
06:30 AM 76.1°F24.5°C 66.5°F19.2°C 72% 1.6 mph NW2.6 kmh NW 3.8 mph6.1 kmh 30.11 in1019.6 mb 0.00 in0.0 mm 0.00 in0.0 mm 0.00 in0.0 mm
06:35 AM 76.1°F24.5°C 66.5°F19.2°C 72% 2.2 mph NW3.5 kmh NW 3.1 mph5.0 kmh 30.10 in1019.3 mb 0.00 in0.0 mm 0.00 in0.0 mm 0.00 in0.0 mm
06:40 AM 76.1°F24.5°C 66.5°F19.2°C 72% 0.7 mph NW1.1 kmh NW 3.1 mph5.0 kmh 30.11 in1019.6 mb 0.00 in0.0 mm 0.00 in0.0 mm 0.00 in0.0 mm
06:45 AM 76.1°F24.5°C 66.5°F19.2°C 72% Calm Calm 2.2 mph3.5 kmh 30.11 in1019.6 mb 0.00 in0.0 mm 0.00 in0.0 mm 0.00 in0.0 mm
06:50 AM 76.1°F24.5°C 66.5°F19.2°C 72% 1.6 mph NW2.6 kmh NW 3.1 mph5.0 kmh 30.11 in1019.6 mb 0.00 in0.0 mm 0.00 in0.0 mm 0.00 in0.0 mm
06:55 AM 76.3°F24.6°C 67.4°F19.7°C 74% 3.1 mph NW5.0 kmh NW 3.8 mph6.1 kmh 30.11 in1019.6 mb 0.00 in0.0 mm 0.00 in0.0 mm 0.00 in0.0 mm
07:00 AM 76.6°F24.8°C 68.6°F20.3°C 76% 3.1 mph NW5.0 kmh NW 4.5 mph7.2 kmh 30.11 in1019.6 mb 0.00 in0.0 mm 0.00 in0.0 mm 0.00 in0.0 mm
07:05 AM 77.0°F25.0°C 68.9°F20.5°C 76% 1.6 mph NW2.6 kmh NW 4.5 mph7.2 kmh 30.11 in1019.6 mb 0.00 in0.0 mm 0.00 in0.0 mm 0.00 in0.0 mm
07:10 AM 77.2°F25.1°C 69.1°F20.6°C 76% 1.6 mph NW2.6 kmh NW 4.5 mph7.2 kmh 30.11 in1019.6 mb 0.00 in0.0 mm 0.00 in0.0 mm 0.00 in0.0 mm
07:15 AM 77.4°F25.2°C 69.2°F20.7°C 76% 2.2 mph NW3.5 kmh NW 4.5 mph7.2 kmh 30.11 in1019.6 mb 0.00 in0.0 mm 0.00 in0.0 mm 0.00 in0.0 mm
07:20 AM 77.5°F25.3°C 69.4°F20.8°C 76% 2.2 mph NW3.5 kmh NW 3.8 mph6.1 kmh 30.11 in1019.6 mb 0.00 in0.0 mm 0.00 in0.0 mm 0.00 in0.0 mm
07:25 AM 77.9°F25.5°C 70.2°F21.2°C 77% 1.6 mph NW2.6 kmh NW 3.8 mph6.1 kmh 30.11 in1019.6 mb 0.00 in0.0 mm 0.00 in0.0 mm 0.00 in0.0 mm
07:30 AM 78.3°F25.7°C 70.1°F21.2°C 76% 2.2 mph NW3.5 kmh NW 3.8 mph6.1 kmh 30.11 in1019.6 mb 0.00 in0.0 mm 0.00 in0.0 mm 0.00 in0.0 mm
07:35 AM 78.6°F25.9°C 70.5°F21.4°C 76% 1.6 mph NW2.6 kmh NW 3.1 mph5.0 kmh 30.11 in1019.6 mb 0.00 in0.0 mm 0.00 in0.0 mm 0.00 in0.0 mm
07:40 AM 79.3°F26.3°C 71.2°F21.8°C 76% 1.6 mph NW2.6 kmh NW 3.8 mph6.1 kmh 30.12 in1020.0 mb 0.00 in0.0 mm 0.00 in0.0 mm 0.00 in0.0 mm
07:45 AM 79.9°F26.6°C 71.7°F22.1°C 76% 1.6 mph NW2.6 kmh NW 3.8 mph6.1 kmh 30.11 in1019.6 mb 0.00 in0.0 mm 0.00 in0.0 mm 0.00 in0.0 mm
07:50 AM 80.6°F27.0°C 72.0°F22.2°C 75% 1.6 mph NW2.6 kmh NW 3.8 mph6.1 kmh 30.12 in1020.0 mb 0.00 in0.0 mm 0.00 in0.0 mm 0.00 in0.0 mm
07:55 AM 81.3°F27.4°C 72.7°F22.6°C 75% 1.6 mph NW2.6 kmh NW 3.8 mph6.1 kmh 30.12 in1020.0 mb 0.00 in0.0 mm 0.00 in0.0 mm 0.00 in0.0 mm
08:00 AM 82.2°F27.9°C 73.2°F22.9°C 74% 3.1 mph NNW5.0 kmh NNW 4.5 mph7.2 kmh 30.12 in1020.0 mb 0.00 in0.0 mm 0.00 in0.0 mm 0.00 in0.0 mm
08:05 AM 82.9°F28.3°C 73.5°F23.1°C 73% 2.2 mph NNW3.5 kmh NNW 5.4 mph8.7 kmh 30.11 in1019.6 mb 0.00 in0.0 mm 0.00 in0.0 mm 0.00 in0.0 mm
08:10 AM 83.8°F28.8°C 73.9°F23.3°C 72% 2.2 mph NNW3.5 kmh NNW 5.4 mph8.7 kmh 30.11 in1019.6 mb 0.00 in0.0 mm 0.00 in0.0 mm 0.00 in0.0 mm
08:15 AM 84.6°F29.2°C 74.6°F23.7°C 72% 4.5 mph NNW7.2 kmh NNW 7.6 mph12.2 kmh 30.11 in1019.6 mb 0.00 in0.0 mm 0.00 in0.0 mm 0.00 in0.0 mm
08:20 AM 86.0°F30.0°C 77.2°F25.1°C 75% 3.1 mph NNW5.0 kmh NNW 7.6 mph12.2 kmh 30.12 in1020.0 mb 0.00 in0.0 mm 0.00 in0.0 mm 0.00 in0.0 mm
08:25 AM 87.1°F30.6°C 78.3°F25.7°C 75% 3.8 mph N6.1 kmh N 6.9 mph11.1 kmh 30.12 in1020.0 mb 0.00 in0.0 mm 0.00 in0.0 mm 0.00 in0.0 mm
08:30 AM 88.2°F31.2°C 78.9°F26.1°C 74% 4.5 mph N7.2 kmh N 7.6 mph12.2 kmh 30.11 in1019.6 mb 0.00 in0.0 mm 0.00 in0.0 mm 0.00 in0.0 mm
08:35 AM 89.1°F31.7°C 79.4°F26.3°C 73% 4.5 mph NNW7.2 kmh NNW 7.6 mph12.2 kmh 30.12 in1020.0 mb 0.00 in0.0 mm 0.00 in0.0 mm 0.00 in0.0 mm
08:40 AM 90.1°F32.3°C 80.0°F26.7°C 72% 8.3 mph WNW13.4 kmh WNW 9.8 mph15.8 kmh 30.11 in1019.6 mb 0.00 in0.0 mm 0.00 in0.0 mm 0.00 in0.0 mm
08:45 AM 90.3°F32.4°C 79.7°F26.5°C 71% 3.1 mph NW5.0 kmh NW 9.8 mph15.8 kmh 30.11 in1019.6 mb 0.00 in0.0 mm 0.00 in0.0 mm 0.00 in0.0 mm
08:47 AM 90.3°F32.4°C 79.6°F26.4°C 71% 3.1 mph NW5.0 kmh NW 9.8 mph15.8 kmh 30.11 in1019.6 mb 0.00 in0.0 mm 0.00 in0.0 mm 0.00 in0.0 mm
08:50 AM 90.7°F32.6°C 79.6°F26.4°C 70% 3.8 mph N6.1 kmh N 9.8 mph15.8 kmh 30.11 in1019.6 mb 0.00 in0.0 mm 0.00 in0.0 mm 0.00 in0.0 mm
08:55 AM 91.6°F33.1°C 80.5°F26.9°C 70% 6.0 mph N9.7 kmh N 9.8 mph15.8 kmh 30.11 in1019.6 mb 0.00 in0.0 mm 0.00 in0.0 mm 0.00 in0.0 mm
09:00 AM 92.7°F33.7°C 81.1°F27.3°C 69% 2.2 mph N3.5 kmh N 9.8 mph15.8 kmh 30.11 in1019.6 mb 0.00 in0.0 mm 0.00 in0.0 mm 0.00 in0.0 mm
09:05 AM 93.9°F34.4°C 81.4°F27.4°C 67% 4.5 mph N7.2 kmh N 7.6 mph12.2 kmh 30.11 in1019.6 mb 0.00 in0.0 mm 0.00 in0.0 mm 0.00 in0.0 mm
09:10 AM 95.0°F35.0°C 81.5°F27.5°C 65% 3.1 mph NW5.0 kmh NW 6.9 mph11.1 kmh 30.11 in1019.6 mb 0.00 in0.0 mm 0.00 in0.0 mm 0.00 in0.0 mm
09:15 AM 95.9°F35.5°C 81.9°F27.7°C 64% 3.8 mph WNW6.1 kmh WNW 6.0 mph9.7 kmh 30.11 in1019.6 mb 0.00 in0.0 mm 0.00 in0.0 mm 0.00 in0.0 mm
09:20 AM 96.1°F35.6°C 81.5°F27.5°C 63% 5.4 mph NNW8.7 kmh NNW 6.9 mph11.1 kmh 30.11 in1019.6 mb 0.00 in0.0 mm 0.00 in0.0 mm 0.00 in0.0 mm
09:25 AM 96.4°F35.8°C 81.9°F27.7°C 63% 2.2 mph NNW3.5 kmh NNW 6.9 mph11.1 kmh 30.11 in1019.6 mb 0.00 in0.0 mm 0.00 in0.0 mm 0.00 in0.0 mm
09:30 AM 97.9°F36.6°C 82.7°F28.2°C 62% 3.8 mph WNW6.1 kmh WNW 7.6 mph12.2 kmh 30.11 in1019.6 mb 0.00 in0.0 mm 0.00 in0.0 mm 0.00 in0.0 mm
09:35 AM 99.0°F37.2°C 82.7°F28.2°C 60% 3.8 mph WSW6.1 kmh WSW 8.3 mph13.4 kmh 30.11 in1019.6 mb 0.00 in0.0 mm 0.00 in0.0 mm 0.00 in0.0 mm
09:40 AM 100.2°F37.9°C 83.4°F28.6°C 59% 3.1 mph WSW5.0 kmh WSW 8.3 mph13.4 kmh 30.11 in1019.6 mb 0.00 in0.0 mm 0.00 in0.0 mm 0.00 in0.0 mm
09:45 AM 100.2°F37.9°C 82.3°F27.9°C 57% 4.5 mph WNW7.2 kmh WNW 8.3 mph13.4 kmh 30.11 in1019.6 mb 0.00 in0.0 mm 0.00 in0.0 mm 0.00 in0.0 mm
09:50 AM 100.6°F38.1°C 82.7°F28.2°C 57% 0.7 mph NW1.1 kmh NW 8.3 mph13.4 kmh 30.11 in1019.6 mb 0.00 in0.0 mm 0.00 in0.0 mm 0.00 in0.0 mm
09:55 AM 100.6°F38.1°C 82.7°F28.2°C 57% 2.2 mph NW3.5 kmh NW 7.6 mph12.2 kmh 30.11 in1019.6 mb 0.00 in0.0 mm 0.00 in0.0 mm 0.00 in0.0 mm
10:00 AM 101.7°F38.7°C 83.1°F28.4°C 56% 3.8 mph NW6.1 kmh NW 7.6 mph12.2 kmh 30.11 in1019.6 mb 0.00 in0.0 mm 0.00 in0.0 mm 0.00 in0.0 mm
10:05 AM 102.7°F39.3°C 83.6°F28.7°C 55% 3.8 mph NW6.1 kmh NW 8.3 mph13.4 kmh 30.11 in1019.6 mb 0.00 in0.0 mm 0.00 in0.0 mm 0.00 in0.0 mm
10:10 AM 103.3°F39.6°C 83.5°F28.6°C 54% 4.5 mph NW7.2 kmh NW 8.3 mph13.4 kmh 30.11 in1019.6 mb 0.00 in0.0 mm 0.00 in0.0 mm 0.00 in0.0 mm
10:15 AM 103.1°F39.5°C 82.8°F28.2°C 53% 6.0 mph NNW9.7 kmh NNW 11.4 mph18.3 kmh 30.11 in1019.6 mb 0.00 in0.0 mm 0.00 in0.0 mm 0.00 in0.0 mm
10:20 AM 101.5°F38.6°C 81.3°F27.4°C 53% 4.5 mph N7.2 kmh N 12.1 mph19.5 kmh 30.10 in1019.3 mb 0.00 in0.0 mm 0.00 in0.0 mm 0.00 in0.0 mm
10:25 AM 101.3°F38.5°C 81.7°F27.6°C 54% 5.4 mph N8.7 kmh N 12.1 mph19.5 kmh 30.11 in1019.6 mb 0.00 in0.0 mm 0.00 in0.0 mm 0.00 in0.0 mm
10:30 AM 102.4°F39.1°C 82.7°F28.2°C 54% 3.1 mph NNW5.0 kmh NNW 8.3 mph13.4 kmh 30.10 in1019.3 mb 0.00 in0.0 mm 0.00 in0.0 mm 0.00 in0.0 mm
10:40 AM 104.2°F40.1°C 83.2°F28.4°C 52% 5.4 mph NNW8.7 kmh NNW 12.1 mph19.5 kmh 30.10 in1019.3 mb 0.00 in0.0 mm 0.00 in0.0 mm 0.00 in0.0 mm
10:45 AM 104.4°F40.2°C 83.3°F28.5°C 52% 6.9 mph NNW11.1 kmh NNW 12.1 mph19.5 kmh 30.09 in1019.0 mb 0.00 in0.0 mm 0.00 in0.0 mm 0.00 in0.0 mm
10:50 AM 104.9°F40.5°C 83.2°F28.4°C 51% 5.4 mph NNW8.7 kmh NNW 9.2 mph14.8 kmh 30.10 in1019.3 mb 0.00 in0.0 mm 0.00 in0.0 mm 0.00 in0.0 mm
10:55 AM 105.4°F40.8°C 83.7°F28.7°C 51% 5.4 mph NNW8.7 kmh NNW 9.8 mph15.8 kmh 30.10 in1019.3 mb 0.00 in0.0 mm 0.00 in0.0 mm 0.00 in0.0 mm
11:00 AM 105.8°F41.0°C 83.4°F28.6°C 50% 5.4 mph NNW8.7 kmh NNW 9.8 mph15.8 kmh 30.10 in1019.3 mb 0.00 in0.0 mm 0.00 in0.0 mm 0.00 in0.0 mm
11:05 AM 106.3°F41.3°C 83.9°F28.8°C 50% 4.5 mph N7.2 kmh N 9.2 mph14.8 kmh 30.10 in1019.3 mb 0.00 in0.0 mm 0.00 in0.0 mm 0.00 in0.0 mm
11:10 AM 106.9°F41.6°C 84.4°F29.1°C 50% 2.2 mph N3.5 kmh N 9.2 mph14.8 kmh 30.11 in1019.6 mb 0.00 in0.0 mm 0.00 in0.0 mm 0.00 in0.0 mm
11:15 AM 107.6°F42.0°C 84.5°F29.2°C 49% 6.9 mph N11.1 kmh N 9.2 mph14.8 kmh 30.11 in1019.6 mb 0.00 in0.0 mm 0.00 in0.0 mm 0.00 in0.0 mm
11:20 AM 107.8°F42.1°C 84.6°F29.2°C 49% 3.1 mph NNE5.0 kmh NNE 9.2 mph14.8 kmh 30.11 in1019.6 mb 0.00 in0.0 mm 0.00 in0.0 mm 0.00 in0.0 mm
11:25 AM 108.5°F42.5°C 84.6°F29.2°C 48% 5.4 mph NE8.7 kmh NE 9.8 mph15.8 kmh 30.11 in1019.6 mb 0.00 in0.0 mm 0.00 in0.0 mm 0.00 in0.0 mm
11:30 AM 108.5°F42.5°C 84.0°F28.9°C 47% 3.1 mph N5.0 kmh N 11.4 mph18.3 kmh 30.11 in1019.6 mb 0.00 in0.0 mm 0.00 in0.0 mm 0.00 in0.0 mm
11:35 AM 109.0°F42.8°C 84.5°F29.2°C 47% 6.9 mph NNE11.1 kmh NNE 12.1 mph19.5 kmh 30.11 in1019.6 mb 0.00 in0.0 mm 0.00 in0.0 mm 0.00 in0.0 mm
11:40 AM 109.2°F42.9°C 84.0°F28.9°C 46% 5.4 mph NE8.7 kmh NE 12.1 mph19.5 kmh 30.11 in1019.6 mb 0.00 in0.0 mm 0.00 in0.0 mm 0.00 in0.0 mm
11:45 AM 109.2°F42.9°C 84.0°F28.9°C 46% 8.3 mph N13.4 kmh N 12.1 mph19.5 kmh 30.11 in1019.6 mb 0.00 in0.0 mm 0.00 in0.0 mm 0.00 in0.0 mm
11:50 AM 109.0°F42.8°C 83.8°F28.8°C 46% 10.7 mph N17.2 kmh N 15.9 mph25.6 kmh 30.11 in1019.6 mb 0.00 in0.0 mm 0.00 in0.0 mm 0.00 in0.0 mm
11:55 AM 108.3°F42.4°C 83.2°F28.4°C 46% 9.2 mph N14.8 kmh N 15.9 mph25.6 kmh 30.11 in1019.6 mb 0.00 in0.0 mm 0.00 in0.0 mm 0.00 in0.0 mm
12:00 PM 108.1°F42.3°C 83.0°F28.3°C 46% 6.9 mph N11.1 kmh N 15.9 mph25.6 kmh 30.11 in1019.6 mb 0.00 in0.0 mm 0.00 in0.0 mm 0.00 in0.0 mm
12:05 PM 108.5°F42.5°C 83.3°F28.5°C 46% 6.9 mph N11.1 kmh N 14.5 mph23.3 kmh 30.11 in1019.6 mb 0.00 in0.0 mm 0.00 in0.0 mm 0.00 in0.0 mm
12:10 PM 108.7°F42.6°C 83.5°F28.6°C 46% 9.2 mph NW14.8 kmh NW 13.6 mph21.9 kmh 30.11 in1019.6 mb 0.00 in0.0 mm 0.00 in0.0 mm 0.00 in0.0 mm
12:15 PM 108.5°F42.5°C 83.3°F28.5°C 46% 6.0 mph NW9.7 kmh NW 13.6 mph21.9 kmh 30.11 in1019.6 mb 0.00 in0.0 mm 0.00 in0.0 mm 0.00 in0.0 mm
12:20 PM 108.7°F42.6°C 82.8°F28.2°C 45% 9.8 mph WNW15.8 kmh WNW 13.6 mph21.9 kmh 30.11 in1019.6 mb 0.00 in0.0 mm 0.00 in0.0 mm 0.00 in0.0 mm
12:25 PM 108.7°F42.6°C 82.8°F28.2°C 45% 8.3 mph W13.4 kmh W 13.6 mph21.9 kmh 30.11 in1019.6 mb 0.00 in0.0 mm 0.00 in0.0 mm 0.00 in0.0 mm
12:30 PM 108.5°F42.5°C 82.6°F28.1°C 45% 6.9 mph W11.1 kmh W 13.6 mph21.9 kmh 30.11 in1019.6 mb 0.00 in0.0 mm 0.00 in0.0 mm 0.00 in0.0 mm
12:35 PM 108.5°F42.5°C 82.6°F28.1°C 45% 7.6 mph W12.2 kmh W 13.0 mph20.9 kmh 30.11 in1019.6 mb 0.00 in0.0 mm 0.00 in0.0 mm 0.00 in0.0 mm
12:40 PM 108.5°F42.5°C 82.6°F28.1°C 45% 8.3 mph WNW13.4 kmh WNW 11.4 mph18.3 kmh 30.11 in1019.6 mb 0.00 in0.0 mm 0.00 in0.0 mm 0.00 in0.0 mm
12:45 PM 109.0°F42.8°C 82.4°F28.0°C 44% 6.0 mph NNW9.7 kmh NNW 12.1 mph19.5 kmh 30.11 in1019.6 mb 0.00 in0.0 mm 0.00 in0.0 mm 0.00 in0.0 mm
12:50 PM 109.0°F42.8°C 82.4°F28.0°C 44% 9.8 mph N15.8 kmh N 13.6 mph21.9 kmh 30.11 in1019.6 mb 0.00 in0.0 mm 0.00 in0.0 mm 0.00 in0.0 mm
12:55 PM 108.9°F42.7°C 81.6°F27.6°C 43% 6.0 mph N9.7 kmh N 13.6 mph21.9 kmh 30.11 in1019.6 mb 0.00 in0.0 mm 0.00 in0.0 mm 0.00 in0.0 mm
01:00 PM 109.2°F42.9°C 81.9°F27.7°C 43% 6.0 mph NW9.7 kmh NW 13.0 mph20.9 kmh 30.11 in1019.6 mb 0.00 in0.0 mm 0.00 in0.0 mm 0.00 in0.0 mm
01:05 PM 109.6°F43.1°C 81.5°F27.5°C 42% 6.0 mph NW9.7 kmh NW 13.0 mph20.9 kmh 30.11 in1019.6 mb 0.00 in0.0 mm 0.00 in0.0 mm 0.00 in0.0 mm
01:10 PM 110.3°F43.5°C 81.4°F27.4°C 41% 6.0 mph NNW9.7 kmh NNW 13.0 mph20.9 kmh 30.11 in1019.6 mb 0.00 in0.0 mm 0.00 in0.0 mm 0.00 in0.0 mm
01:15 PM 110.3°F43.5°C 81.4°F27.4°C 41% 7.6 mph N12.2 kmh N 13.0 mph20.9 kmh 30.11 in1019.6 mb 0.00 in0.0 mm 0.00 in0.0 mm 0.00 in0.0 mm
01:20 PM 110.5°F43.6°C 81.5°F27.5°C 41% 9.2 mph NNW14.8 kmh NNW 14.5 mph23.3 kmh 30.10 in1019.3 mb 0.00 in0.0 mm 0.00 in0.0 mm 0.00 in0.0 mm
01:25 PM 110.3°F43.5°C 81.4°F27.4°C 41% 9.2 mph NNW14.8 kmh NNW 14.5 mph23.3 kmh 30.10 in1019.3 mb 0.00 in0.0 mm 0.00 in0.0 mm 0.00 in0.0 mm
01:30 PM 110.1°F43.4°C 81.2°F27.3°C 41% 9.2 mph N14.8 kmh N 13.6 mph21.9 kmh 30.10 in1019.3 mb 0.00 in0.0 mm 0.00 in0.0 mm 0.00 in0.0 mm
01:35 PM 109.8°F43.2°C 80.9°F27.2°C 41% 9.2 mph N14.8 kmh N 13.6 mph21.9 kmh 30.10 in1019.3 mb 0.00 in0.0 mm 0.00 in0.0 mm 0.00 in0.0 mm
01:40 PM 109.4°F43.0°C 81.3°F27.4°C 42% 7.6 mph NNW12.2 kmh NNW 13.6 mph21.9 kmh 30.09 in1019.0 mb 0.00 in0.0 mm 0.00 in0.0 mm 0.00 in0.0 mm
01:45 PM 109.9°F43.3°C 81.1°F27.3°C 41% 3.8 mph NW6.1 kmh NW 12.1 mph19.5 kmh 30.10 in1019.3 mb 0.00 in0.0 mm 0.00 in0.0 mm 0.00 in0.0 mm
01:50 PM 111.0°F43.9°C 82.0°F27.8°C 41% 9.8 mph NNW15.8 kmh NNW 13.0 mph20.9 kmh 30.10 in1019.3 mb 0.00 in0.0 mm 0.00 in0.0 mm 0.00 in0.0 mm
01:55 PM 111.0°F43.9°C 82.0°F27.8°C 41% 9.8 mph N15.8 kmh N 13.0 mph20.9 kmh 30.10 in1019.3 mb 0.00 in0.0 mm 0.00 in0.0 mm 0.00 in0.0 mm
02:00 PM 110.3°F43.5°C 81.4°F27.4°C 41% 5.4 mph N8.7 kmh N 13.0 mph20.9 kmh 30.11 in1019.6 mb 0.00 in0.0 mm 0.00 in0.0 mm 0.00 in0.0 mm
02:05 PM 110.8°F43.8°C 81.1°F27.3°C 40% 3.1 mph NNW5.0 kmh NNW 12.1 mph19.5 kmh 30.10 in1019.3 mb 0.00 in0.0 mm 0.00 in0.0 mm 0.00 in0.0 mm
02:10 PM 111.4°F44.1°C 80.8°F27.1°C 39% 5.4 mph NNW8.7 kmh NNW 9.8 mph15.8 kmh 30.10 in1019.3 mb 0.00 in0.0 mm 0.00 in0.0 mm 0.00 in0.0 mm
02:15 PM 111.4°F44.1°C 80.8°F27.1°C 39% 8.3 mph N13.4 kmh N 11.4 mph18.3 kmh 30.09 in1019.0 mb 0.00 in0.0 mm 0.00 in0.0 mm 0.00 in0.0 mm
02:20 PM 111.2°F44.0°C 80.6°F27.0°C 39% 8.3 mph N13.4 kmh N 11.4 mph18.3 kmh 30.09 in1019.0 mb 0.00 in0.0 mm 0.00 in0.0 mm 0.00 in0.0 mm
02:25 PM 110.8°F43.8°C 80.3°F26.8°C 39% 10.7 mph NNW17.2 kmh NNW 13.6 mph21.9 kmh 30.09 in1019.0 mb 0.00 in0.0 mm 0.00 in0.0 mm 0.00 in0.0 mm
02:30 PM 110.5°F43.6°C 80.0°F26.7°C 39% 5.4 mph NW8.7 kmh NW 13.6 mph21.9 kmh 30.09 in1019.0 mb 0.00 in0.0 mm 0.00 in0.0 mm 0.00 in0.0 mm
02:35 PM 110.7°F43.7°C 80.2°F26.8°C 39% 4.5 mph NNW7.2 kmh NNW 13.6 mph21.9 kmh 30.09 in1019.0 mb 0.00 in0.0 mm 0.00 in0.0 mm 0.00 in0.0 mm
02:40 PM 110.5°F43.6°C 80.0°F26.7°C 39% 6.9 mph N11.1 kmh N 11.4 mph18.3 kmh 30.09 in1019.0 mb 0.00 in0.0 mm 0.00 in0.0 mm 0.00 in0.0 mm
02:45 PM 110.5°F43.6°C 80.0°F26.7°C 39% 5.4 mph NNW8.7 kmh NNW 11.4 mph18.3 kmh 30.09 in1019.0 mb 0.00 in0.0 mm 0.00 in0.0 mm 0.00 in0.0 mm
02:50 PM 111.2°F44.0°C 80.6°F27.0°C 39% 6.9 mph NNW11.1 kmh NNW 10.7 mph17.2 kmh 30.09 in1019.0 mb 0.00 in0.0 mm 0.00 in0.0 mm 0.00 in0.0 mm
02:55 PM 110.7°F43.7°C 80.2°F26.8°C 39% 6.9 mph N11.1 kmh N 13.0 mph20.9 kmh 30.09 in1019.0 mb 0.00 in0.0 mm 0.00 in0.0 mm 0.00 in0.0 mm
03:00 PM 110.3°F43.5°C 79.8°F26.6°C 39% 5.4 mph N8.7 kmh N 13.0 mph20.9 kmh 30.09 in1019.0 mb 0.00 in0.0 mm 0.00 in0.0 mm 0.00 in0.0 mm
03:05 PM 109.9°F43.3°C 79.5°F26.4°C 39% 6.9 mph N11.1 kmh N 13.0 mph20.9 kmh 30.09 in1019.0 mb 0.00 in0.0 mm 0.00 in0.0 mm 0.00 in0.0 mm
03:10 PM 109.9°F43.3°C 79.5°F26.4°C 39% 6.9 mph NNW11.1 kmh NNW 13.0 mph20.9 kmh 30.08 in1018.6 mb 0.00 in0.0 mm 0.00 in0.0 mm 0.00 in0.0 mm
03:15 PM 110.3°F43.5°C 79.8°F26.6°C 39% 6.9 mph NW11.1 kmh NW 13.6 mph21.9 kmh 30.08 in1018.6 mb 0.00 in0.0 mm 0.00 in0.0 mm 0.00 in0.0 mm
03:20 PM 110.1°F43.4°C 79.7°F26.5°C 39% 2.2 mph NW3.5 kmh NW 13.6 mph21.9 kmh 30.08 in1018.6 mb 0.00 in0.0 mm 0.00 in0.0 mm 0.00 in0.0 mm
03:25 PM 110.3°F43.5°C 79.8°F26.6°C 39% 7.6 mph WNW12.2 kmh WNW 14.5 mph23.3 kmh 30.08 in1018.6 mb 0.00 in0.0 mm 0.00 in0.0 mm 0.00 in0.0 mm
03:30 PM 109.9°F43.3°C 79.5°F26.4°C 39% 4.5 mph NW7.2 kmh NW 14.5 mph23.3 kmh 30.08 in1018.6 mb 0.00 in0.0 mm 0.00 in0.0 mm 0.00 in0.0 mm
03:35 PM 109.9°F43.3°C 79.5°F26.4°C 39% 7.6 mph NW12.2 kmh NW 13.6 mph21.9 kmh 30.07 in1018.3 mb 0.00 in0.0 mm 0.00 in0.0 mm 0.00 in0.0 mm
03:40 PM 109.4°F43.0°C 79.0°F26.1°C 39% 6.0 mph NNW9.7 kmh NNW 13.6 mph21.9 kmh 30.07 in1018.3 mb 0.00 in0.0 mm 0.00 in0.0 mm 0.00 in0.0 mm
03:45 PM 109.4°F43.0°C 79.8°F26.6°C 40% 6.9 mph NNW11.1 kmh NNW 11.4 mph18.3 kmh 30.07 in1018.3 mb 0.00 in0.0 mm 0.00 in0.0 mm 0.00 in0.0 mm
03:50 PM 109.0°F42.8°C 78.7°F25.9°C 39% 6.9 mph N11.1 kmh N 13.6 mph21.9 kmh 30.07 in1018.3 mb 0.00 in0.0 mm 0.00 in0.0 mm 0.00 in0.0 mm
03:55 PM 109.0°F42.8°C 79.5°F26.4°C 40% 4.5 mph N7.2 kmh N 13.6 mph21.9 kmh 30.07 in1018.3 mb 0.00 in0.0 mm 0.00 in0.0 mm 0.00 in0.0 mm
04:00 PM 109.0°F42.8°C 79.5°F26.4°C 40% 6.9 mph NW11.1 kmh NW 13.0 mph20.9 kmh 30.07 in1018.3 mb 0.00 in0.0 mm 0.00 in0.0 mm 0.00 in0.0 mm
04:05 PM 108.9°F42.7°C 79.3°F26.3°C 40% 9.8 mph NW15.8 kmh NW 13.0 mph20.9 kmh 30.07 in1018.3 mb 0.00 in0.0 mm 0.00 in0.0 mm 0.00 in0.0 mm
04:10 PM 108.5°F42.5°C 79.0°F26.1°C 40% 7.6 mph NNW12.2 kmh NNW 13.0 mph20.9 kmh 30.07 in1018.3 mb 0.00 in0.0 mm 0.00 in0.0 mm 0.00 in0.0 mm
04:15 PM 108.3°F42.4°C 78.9°F26.1°C 40% 8.3 mph NNW13.4 kmh NNW 13.0 mph20.9 kmh 30.06 in1017.9 mb 0.00 in0.0 mm 0.00 in0.0 mm 0.00 in0.0 mm
04:20 PM 107.6°F42.0°C 78.2°F25.7°C 40% 6.0 mph NW9.7 kmh NW 12.1 mph19.5 kmh 30.06 in1017.9 mb 0.00 in0.0 mm 0.00 in0.0 mm 0.00 in0.0 mm
04:25 PM 107.4°F41.9°C 78.8°F26.0°C 41% 5.4 mph NW8.7 kmh NW 12.1 mph19.5 kmh 30.06 in1017.9 mb 0.00 in0.0 mm 0.00 in0.0 mm 0.00 in0.0 mm
04:30 PM 107.4°F41.9°C 78.8°F26.0°C 41% 6.0 mph NW9.7 kmh NW 12.1 mph19.5 kmh 30.06 in1017.9 mb 0.00 in0.0 mm 0.00 in0.0 mm 0.00 in0.0 mm
04:35 PM 107.1°F41.7°C 78.5°F25.8°C 41% 3.8 mph N6.1 kmh N 11.4 mph18.3 kmh 30.06 in1017.9 mb 0.00 in0.0 mm 0.00 in0.0 mm 0.00 in0.0 mm
04:40 PM 106.9°F41.6°C 79.1°F26.2°C 42% 6.0 mph N9.7 kmh N 13.0 mph20.9 kmh 30.06 in1017.9 mb 0.00 in0.0 mm 0.00 in0.0 mm 0.00 in0.0 mm
04:45 PM 106.5°F41.4°C 78.7°F25.9°C 42% 9.8 mph NNW15.8 kmh NNW 13.0 mph20.9 kmh 30.06 in1017.9 mb 0.00 in0.0 mm 0.00 in0.0 mm 0.00 in0.0 mm
04:50 PM 106.2°F41.2°C 79.1°F26.2°C 43% 7.6 mph NNW12.2 kmh NNW 13.0 mph20.9 kmh 30.06 in1017.9 mb 0.00 in0.0 mm 0.00 in0.0 mm 0.00 in0.0 mm
04:55 PM 105.8°F41.0°C 78.8°F26.0°C 43% 8.3 mph NW13.4 kmh NW 15.2 mph24.5 kmh 30.06 in1017.9 mb 0.00 in0.0 mm 0.00 in0.0 mm 0.00 in0.0 mm
05:00 PM 105.3°F40.7°C 79.0°F26.1°C 44% 9.2 mph NW14.8 kmh NW 15.2 mph24.5 kmh 30.06 in1017.9 mb 0.00 in0.0 mm 0.00 in0.0 mm 0.00 in0.0 mm
05:05 PM 105.3°F40.7°C 79.0°F26.1°C 44% 5.4 mph NW8.7 kmh NW 12.1 mph19.5 kmh 30.06 in1017.9 mb 0.00 in0.0 mm 0.00 in0.0 mm 0.00 in0.0 mm
05:10 PM 105.1°F40.6°C 78.9°F26.1°C 44% 9.8 mph NW15.8 kmh NW 13.0 mph20.9 kmh 30.06 in1017.9 mb 0.00 in0.0 mm 0.00 in0.0 mm 0.00 in0.0 mm
05:15 PM 104.5°F40.3°C 78.4°F25.8°C 44% 8.3 mph WNW13.4 kmh WNW 13.0 mph20.9 kmh 30.06 in1017.9 mb 0.00 in0.0 mm 0.00 in0.0 mm 0.00 in0.0 mm
05:20 PM 103.8°F39.9°C 78.4°F25.8°C 45% 6.0 mph NW9.7 kmh NW 15.2 mph24.5 kmh 30.06 in1017.9 mb 0.00 in0.0 mm 0.00 in0.0 mm 0.00 in0.0 mm
05:25 PM 103.5°F39.7°C 78.1°F25.6°C 45% 6.9 mph NW11.1 kmh NW 15.2 mph24.5 kmh 30.05 in1017.6 mb 0.00 in0.0 mm 0.00 in0.0 mm 0.00 in0.0 mm
05:30 PM 103.3°F39.6°C 78.6°F25.9°C 46% 4.5 mph NW7.2 kmh NW 13.0 mph20.9 kmh 30.05 in1017.6 mb 0.00 in0.0 mm 0.00 in0.0 mm 0.00 in0.0 mm
05:35 PM 103.1°F39.5°C 78.4°F25.8°C 46% 5.4 mph NW8.7 kmh NW 13.0 mph20.9 kmh 30.05 in1017.6 mb 0.00 in0.0 mm 0.00 in0.0 mm 0.00 in0.0 mm
05:40 PM 102.4°F39.1°C 78.4°F25.8°C 47% 6.9 mph NW11.1 kmh NW 13.0 mph20.9 kmh 30.05 in1017.6 mb 0.00 in0.0 mm 0.00 in0.0 mm 0.00 in0.0 mm
05:45 PM 101.8°F38.8°C 77.9°F25.5°C 47% 10.7 mph NW17.2 kmh NW 13.0 mph20.9 kmh 30.05 in1017.6 mb 0.00 in0.0 mm 0.00 in0.0 mm 0.00 in0.0 mm
05:50 PM 101.3°F38.5°C 78.1°F25.6°C 48% 6.9 mph NNW11.1 kmh NNW 13.0 mph20.9 kmh 30.05 in1017.6 mb 0.00 in0.0 mm 0.00 in0.0 mm 0.00 in0.0 mm
05:55 PM 100.8°F38.2°C 77.6°F25.3°C 48% 4.5 mph N7.2 kmh N 13.6 mph21.9 kmh 30.05 in1017.6 mb 0.00 in0.0 mm 0.00 in0.0 mm 0.00 in0.0 mm
06:00 PM 100.2°F37.9°C 77.7°F25.4°C 49% 6.9 mph NW11.1 kmh NW 13.6 mph21.9 kmh 30.05 in1017.6 mb 0.00 in0.0 mm 0.00 in0.0 mm 0.00 in0.0 mm
06:05 PM 100.2°F37.9°C 77.7°F25.4°C 49% 6.9 mph NW11.1 kmh NW 13.6 mph21.9 kmh 30.05 in1017.6 mb 0.00 in0.0 mm 0.00 in0.0 mm 0.00 in0.0 mm
06:10 PM 99.5°F37.5°C 77.0°F25.0°C 49% 6.0 mph NW9.7 kmh NW 12.1 mph19.5 kmh 30.05 in1017.6 mb 0.00 in0.0 mm 0.00 in0.0 mm 0.00 in0.0 mm
06:15 PM 99.1°F37.3°C 77.3°F25.2°C 50% 6.0 mph NNW9.7 kmh NNW 12.1 mph19.5 kmh 30.05 in1017.6 mb 0.00 in0.0 mm 0.00 in0.0 mm 0.00 in0.0 mm
06:20 PM 98.6°F37.0°C 77.4°F25.2°C 51% 7.6 mph NNW12.2 kmh NNW 12.1 mph19.5 kmh 30.05 in1017.6 mb 0.00 in0.0 mm 0.00 in0.0 mm 0.00 in0.0 mm
06:25 PM 98.4°F36.9°C 77.3°F25.2°C 51% 6.0 mph NW9.7 kmh NW 11.4 mph18.3 kmh 30.05 in1017.6 mb 0.00 in0.0 mm 0.00 in0.0 mm 0.00 in0.0 mm
06:30 PM 98.1°F36.7°C 77.5°F25.3°C 52% 6.9 mph NNW11.1 kmh NNW 13.6 mph21.9 kmh 30.05 in1017.6 mb 0.00 in0.0 mm 0.00 in0.0 mm 0.00 in0.0 mm
06:35 PM 97.7°F36.5°C 77.2°F25.1°C 52% 7.6 mph N12.2 kmh N 13.6 mph21.9 kmh 30.05 in1017.6 mb 0.00 in0.0 mm 0.00 in0.0 mm 0.00 in0.0 mm
06:40 PM 97.3°F36.3°C 76.9°F24.9°C 52% 6.9 mph N11.1 kmh N 12.1 mph19.5 kmh 30.05 in1017.6 mb 0.00 in0.0 mm 0.00 in0.0 mm 0.00 in0.0 mm
06:45 PM 96.8°F36.0°C 76.9°F24.9°C 53% 4.5 mph N7.2 kmh N 12.1 mph19.5 kmh 30.05 in1017.6 mb 0.00 in0.0 mm 0.00 in0.0 mm 0.00 in0.0 mm
06:50 PM 96.4°F35.8°C 76.6°F24.8°C 53% 6.9 mph NW11.1 kmh NW 12.1 mph19.5 kmh 30.05 in1017.6 mb 0.00 in0.0 mm 0.00 in0.0 mm 0.00 in0.0 mm
06:55 PM 95.9°F35.5°C 76.7°F24.8°C 54% 5.4 mph NW8.7 kmh NW 12.1 mph19.5 kmh 30.05 in1017.6 mb 0.00 in0.0 mm 0.00 in0.0 mm 0.00 in0.0 mm
07:00 PM 95.5°F35.3°C 76.3°F24.6°C 54% 7.6 mph N12.2 kmh N 11.4 mph18.3 kmh 30.05 in1017.6 mb 0.00 in0.0 mm 0.00 in0.0 mm 0.00 in0.0 mm
07:05 PM 95.4°F35.2°C 76.7°F24.8°C 55% 5.4 mph NNW8.7 kmh NNW 10.7 mph17.2 kmh 30.05 in1017.6 mb 0.00 in0.0 mm 0.00 in0.0 mm 0.00 in0.0 mm
07:10 PM 94.6°F34.8°C 76.0°F24.4°C 55% 7.6 mph NW12.2 kmh NW 11.4 mph18.3 kmh 30.05 in1017.6 mb 0.00 in0.0 mm 0.00 in0.0 mm 0.00 in0.0 mm
07:15 PM 94.3°F34.6°C 76.3°F24.6°C 56% 6.9 mph WNW11.1 kmh WNW 11.4 mph18.3 kmh 30.05 in1017.6 mb 0.00 in0.0 mm 0.00 in0.0 mm 0.00 in0.0 mm
07:20 PM 93.9°F34.4°C 75.9°F24.4°C 56% 6.0 mph W9.7 kmh W 13.0 mph20.9 kmh 30.05 in1017.6 mb 0.00 in0.0 mm 0.00 in0.0 mm 0.00 in0.0 mm
07:25 PM 93.6°F34.2°C 76.1°F24.5°C 57% 6.9 mph W11.1 kmh W 13.6 mph21.9 kmh 30.05 in1017.6 mb 0.00 in0.0 mm 0.00 in0.0 mm 0.00 in0.0 mm
07:30 PM 93.2°F34.0°C 75.8°F24.3°C 57% 3.8 mph W6.1 kmh W 13.6 mph21.9 kmh 30.06 in1017.9 mb 0.00 in0.0 mm 0.00 in0.0 mm 0.00 in0.0 mm
07:35 PM 93.0°F33.9°C 76.1°F24.5°C 58% 7.6 mph W12.2 kmh W 10.7 mph17.2 kmh 30.06 in1017.9 mb 0.00 in0.0 mm 0.00 in0.0 mm 0.00 in0.0 mm
07:40 PM 92.7°F33.7°C 75.8°F24.3°C 58% 6.9 mph WNW11.1 kmh WNW 10.7 mph17.2 kmh 30.06 in1017.9 mb 0.00 in0.0 mm 0.00 in0.0 mm 0.00 in0.0 mm
07:45 PM 92.3°F33.5°C 76.0°F24.4°C 59% 7.6 mph WNW12.2 kmh WNW 10.7 mph17.2 kmh 30.06 in1017.9 mb 0.00 in0.0 mm 0.00 in0.0 mm 0.00 in0.0 mm
07:50 PM 91.9°F33.3°C 75.6°F24.2°C 59% 5.4 mph WNW8.7 kmh WNW 11.4 mph18.3 kmh 30.06 in1017.9 mb 0.00 in0.0 mm 0.00 in0.0 mm 0.00 in0.0 mm
07:55 PM 91.9°F33.3°C 76.1°F24.5°C 60% 5.4 mph NW8.7 kmh NW 11.4 mph18.3 kmh 30.06 in1017.9 mb 0.00 in0.0 mm 0.00 in0.0 mm 0.00 in0.0 mm
08:00 PM 91.2°F32.9°C 75.5°F24.2°C 60% 8.3 mph NW13.4 kmh NW 13.0 mph20.9 kmh 30.06 in1017.9 mb 0.00 in0.0 mm 0.00 in0.0 mm 0.00 in0.0 mm
08:05 PM 91.2°F32.9°C 76.0°F24.4°C 61% 4.5 mph NW7.2 kmh NW 13.0 mph20.9 kmh 30.06 in1017.9 mb 0.00 in0.0 mm 0.00 in0.0 mm 0.00 in0.0 mm
08:10 PM 90.7°F32.6°C 75.5°F24.2°C 61% 6.9 mph NW11.1 kmh NW 13.0 mph20.9 kmh 30.06 in1017.9 mb 0.00 in0.0 mm 0.00 in0.0 mm 0.00 in0.0 mm
08:15 PM 90.3°F32.4°C 75.6°F24.2°C 62% 5.4 mph NW8.7 kmh NW 10.7 mph17.2 kmh 30.07 in1018.3 mb 0.00 in0.0 mm 0.00 in0.0 mm 0.00 in0.0 mm
08:20 PM 90.1°F32.3°C 75.9°F24.4°C 63% 4.5 mph NW7.2 kmh NW 10.7 mph17.2 kmh 30.07 in1018.3 mb 0.00 in0.0 mm 0.00 in0.0 mm 0.00 in0.0 mm
08:25 PM 89.8°F32.1°C 75.6°F24.2°C 63% 7.6 mph NW12.2 kmh NW 10.7 mph17.2 kmh 30.08 in1018.6 mb 0.00 in0.0 mm 0.00 in0.0 mm 0.00 in0.0 mm
08:30 PM 89.6°F32.0°C 75.9°F24.4°C 64% 3.8 mph NW6.1 kmh NW 9.8 mph15.8 kmh 30.08 in1018.6 mb 0.00 in0.0 mm 0.00 in0.0 mm 0.00 in0.0 mm
08:35 PM 89.2°F31.8°C 75.5°F24.2°C 64% 5.4 mph NW8.7 kmh NW 9.8 mph15.8 kmh 30.08 in1018.6 mb 0.00 in0.0 mm 0.00 in0.0 mm 0.00 in0.0 mm
08:40 PM 88.9°F31.6°C 75.7°F24.3°C 65% 4.5 mph NW7.2 kmh NW 9.2 mph14.8 kmh 30.08 in1018.6 mb 0.00 in0.0 mm 0.00 in0.0 mm 0.00 in0.0 mm
08:45 PM 88.7°F31.5°C 75.5°F24.2°C 65% 5.4 mph NW8.7 kmh NW 9.8 mph15.8 kmh 30.08 in1018.6 mb 0.00 in0.0 mm 0.00 in0.0 mm 0.00 in0.0 mm
08:50 PM 88.3°F31.3°C 75.2°F24.0°C 65% 5.4 mph NW8.7 kmh NW 9.8 mph15.8 kmh 30.09 in1019.0 mb 0.00 in0.0 mm 0.00 in0.0 mm 0.00 in0.0 mm
08:55 PM 88.2°F31.2°C 75.4°F24.1°C 66% 4.5 mph NNW7.2 kmh NNW 9.8 mph15.8 kmh 30.09 in1019.0 mb 0.00 in0.0 mm 0.00 in0.0 mm 0.00 in0.0 mm
09:00 PM 88.0°F31.1°C 75.3°F24.1°C 66% 4.5 mph NNW7.2 kmh NNW 9.2 mph14.8 kmh 30.09 in1019.0 mb 0.00 in0.0 mm 0.00 in0.0 mm 0.00 in0.0 mm
09:05 PM 87.8°F31.0°C 75.1°F23.9°C 66% 4.5 mph NNW7.2 kmh NNW 7.6 mph12.2 kmh 30.09 in1019.0 mb 0.00 in0.0 mm 0.00 in0.0 mm 0.00 in0.0 mm
09:10 PM 87.6°F30.9°C 75.4°F24.1°C 67% 6.0 mph NW9.7 kmh NW 8.3 mph13.4 kmh 30.09 in1019.0 mb 0.00 in0.0 mm 0.00 in0.0 mm 0.00 in0.0 mm
09:15 PM 87.4°F30.8°C 75.2°F24.0°C 67% 4.5 mph NW7.2 kmh NW 8.3 mph13.4 kmh 30.09 in1019.0 mb 0.00 in0.0 mm 0.00 in0.0 mm 0.00 in0.0 mm
09:20 PM 87.3°F30.7°C 75.5°F24.2°C 68% 5.4 mph NW8.7 kmh NW 8.3 mph13.4 kmh 30.10 in1019.3 mb 0.00 in0.0 mm 0.00 in0.0 mm 0.00 in0.0 mm
09:25 PM 87.1°F30.6°C 75.3°F24.1°C 68% 3.8 mph N6.1 kmh N 10.7 mph17.2 kmh 30.09 in1019.0 mb 0.00 in0.0 mm 0.00 in0.0 mm 0.00 in0.0 mm
09:30 PM 86.9°F30.5°C 75.1°F23.9°C 68% 3.8 mph N6.1 kmh N 10.7 mph17.2 kmh 30.10 in1019.3 mb 0.00 in0.0 mm 0.00 in0.0 mm 0.00 in0.0 mm
09:35 PM 86.7°F30.4°C 75.4°F24.1°C 69% 3.8 mph N6.1 kmh N 9.2 mph14.8 kmh 30.10 in1019.3 mb 0.00 in0.0 mm 0.00 in0.0 mm 0.00 in0.0 mm
09:40 PM 86.7°F30.4°C 75.4°F24.1°C 69% 2.2 mph N3.5 kmh N 9.2 mph14.8 kmh 30.10 in1019.3 mb 0.00 in0.0 mm 0.00 in0.0 mm 0.00 in0.0 mm
09:45 PM 86.5°F30.3°C 75.2°F24.0°C 69% 5.4 mph N8.7 kmh N 8.3 mph13.4 kmh 30.11 in1019.6 mb 0.00 in0.0 mm 0.00 in0.0 mm 0.00 in0.0 mm
09:50 PM 86.4°F30.2°C 75.5°F24.2°C 70% 4.5 mph NNW7.2 kmh NNW 11.4 mph18.3 kmh 30.11 in1019.6 mb 0.00 in0.0 mm 0.00 in0.0 mm 0.00 in0.0 mm
09:55 PM 86.4°F30.2°C 75.5°F24.2°C 70% 6.0 mph NW9.7 kmh NW 11.4 mph18.3 kmh 30.11 in1019.6 mb 0.00 in0.0 mm 0.00 in0.0 mm 0.00 in0.0 mm
10:00 PM 86.2°F30.1°C 75.3°F24.1°C 70% 5.4 mph NW8.7 kmh NW 9.2 mph14.8 kmh 30.11 in1019.6 mb 0.00 in0.0 mm 0.00 in0.0 mm 0.00 in0.0 mm
10:05 PM 86.0°F30.0°C 75.6°F24.2°C 71% 3.8 mph WNW6.1 kmh WNW 8.3 mph13.4 kmh 30.12 in1020.0 mb 0.00 in0.0 mm 0.00 in0.0 mm 0.00 in0.0 mm
10:10 PM 86.0°F30.0°C 75.6°F24.2°C 71% 4.5 mph W7.2 kmh W 9.2 mph14.8 kmh 30.12 in1020.0 mb 0.00 in0.0 mm 0.00 in0.0 mm 0.00 in0.0 mm
10:15 PM 85.8°F29.9°C 75.4°F24.1°C 71% 3.8 mph W6.1 kmh W 9.2 mph14.8 kmh 30.11 in1019.6 mb 0.00 in0.0 mm 0.00 in0.0 mm 0.00 in0.0 mm
10:20 PM 85.6°F29.8°C 75.2°F24.0°C 71% 4.5 mph NW7.2 kmh NW 8.3 mph13.4 kmh 30.12 in1020.0 mb 0.00 in0.0 mm 0.00 in0.0 mm 0.00 in0.0 mm
10:25 PM 85.6°F29.8°C 75.2°F24.0°C 71% 3.8 mph NW6.1 kmh NW 7.6 mph12.2 kmh 30.12 in1020.0 mb 0.00 in0.0 mm 0.00 in0.0 mm 0.00 in0.0 mm
10:30 PM 85.6°F29.8°C 75.6°F24.2°C 72% 4.5 mph NW7.2 kmh NW 6.9 mph11.1 kmh 30.12 in1020.0 mb 0.00 in0.0 mm 0.00 in0.0 mm 0.00 in0.0 mm
10:35 PM 85.3°F29.6°C 75.3°F24.1°C 72% 5.4 mph NW8.7 kmh NW 6.9 mph11.1 kmh 30.13 in1020.3 mb 0.00 in0.0 mm 0.00 in0.0 mm 0.00 in0.0 mm
10:40 PM 85.3°F29.6°C 75.3°F24.1°C 72% 3.8 mph NW6.1 kmh NW 6.9 mph11.1 kmh 30.12 in1020.0 mb 0.00 in0.0 mm 0.00 in0.0 mm 0.00 in0.0 mm
10:45 PM 85.3°F29.6°C 75.3°F24.1°C 72% 2.2 mph WNW3.5 kmh WNW 6.9 mph11.1 kmh 30.13 in1020.3 mb 0.00 in0.0 mm 0.00 in0.0 mm 0.00 in0.0 mm
10:50 PM 85.1°F29.5°C 75.1°F23.9°C 72% 1.6 mph W2.6 kmh W 6.9 mph11.1 kmh 30.12 in1020.0 mb 0.00 in0.0 mm 0.00 in0.0 mm 0.00 in0.0 mm
10:55 PM 84.9°F29.4°C 74.9°F23.8°C 72% 4.5 mph W7.2 kmh W 7.6 mph12.2 kmh 30.12 in1020.0 mb 0.00 in0.0 mm 0.00 in0.0 mm 0.00 in0.0 mm
11:00 PM 84.7°F29.3°C 74.8°F23.8°C 72% 3.8 mph W6.1 kmh W 7.6 mph12.2 kmh 30.12 in1020.0 mb 0.00 in0.0 mm 0.00 in0.0 mm 0.00 in0.0 mm
11:05 PM 84.6°F29.2°C 74.6°F23.7°C 72% 2.2 mph WNW3.5 kmh WNW 6.9 mph11.1 kmh 30.12 in1020.0 mb 0.00 in0.0 mm 0.00 in0.0 mm 0.00 in0.0 mm
11:10 PM 84.6°F29.2°C 74.6°F23.7°C 72% 3.1 mph W5.0 kmh W 6.0 mph9.7 kmh 30.13 in1020.3 mb 0.00 in0.0 mm 0.00 in0.0 mm 0.00 in0.0 mm
11:15 PM 84.2°F29.0°C 74.3°F23.5°C 72% 3.1 mph W5.0 kmh W 5.4 mph8.7 kmh 30.12 in1020.0 mb 0.00 in0.0 mm 0.00 in0.0 mm 0.00 in0.0 mm
11:20 PM 84.0°F28.9°C 74.1°F23.4°C 72% 2.2 mph W3.5 kmh W 6.0 mph9.7 kmh 30.12 in1020.0 mb 0.00 in0.0 mm 0.00 in0.0 mm 0.00 in0.0 mm
11:25 PM 83.8°F28.8°C 73.9°F23.3°C 72% 2.2 mph WNW3.5 kmh WNW 6.0 mph9.7 kmh 30.12 in1020.0 mb 0.00 in0.0 mm 0.00 in0.0 mm 0.00 in0.0 mm
11:30 PM 83.8°F28.8°C 73.9°F23.3°C 72% 2.2 mph WNW3.5 kmh WNW 5.4 mph8.7 kmh 30.12 in1020.0 mb 0.00 in0.0 mm 0.00 in0.0 mm 0.00 in0.0 mm
11:35 PM 83.7°F28.7°C 73.7°F23.2°C 72% 2.2 mph W3.5 kmh W 4.5 mph7.2 kmh 30.12 in1020.0 mb 0.00 in0.0 mm 0.00 in0.0 mm 0.00 in0.0 mm
11:40 PM 83.5°F28.6°C 73.6°F23.1°C 72% 2.2 mph W3.5 kmh W 4.5 mph7.2 kmh 30.12 in1020.0 mb 0.00 in0.0 mm 0.00 in0.0 mm 0.00 in0.0 mm
11:45 PM 83.3°F28.5°C 73.4°F23.0°C 72% 2.2 mph W3.5 kmh W 4.5 mph7.2 kmh 30.12 in1020.0 mb 0.00 in0.0 mm 0.00 in0.0 mm 0.00 in0.0 mm
11:50 PM 83.1°F28.4°C 73.2°F22.9°C 72% 1.6 mph WNW2.6 kmh WNW 3.8 mph6.1 kmh 30.12 in1020.0 mb 0.00 in0.0 mm 0.00 in0.0 mm 0.00 in0.0 mm
11:55 PM 82.9°F28.3°C 73.0°F22.8°C 72% 1.6 mph W2.6 kmh W 3.8 mph6.1 kmh 30.12 in1020.0 mb 0.00 in0.0 mm 0.00 in0.0 mm 0.00 in0.0 mm